createdAt,value
2017-08-21T20:59:57.122Z,12.70
2017-08-21T21:02:26.071Z,12.40
2017-08-21T21:04:55.779Z,12.30
2017-08-21T21:07:24.678Z,12.20
2017-08-21T21:09:53.589Z,12.30
2017-08-21T21:12:22.652Z,12.20
2017-08-21T21:14:51.565Z,12.20
2017-08-21T21:17:20.526Z,12.20
2017-08-21T21:19:49.465Z,12.20
2017-08-21T21:22:18.398Z,12.30
2017-08-21T21:24:47.286Z,12.20
2017-08-21T21:27:16.292Z,12.20
2017-08-21T21:29:45.994Z,12.20
2017-08-21T21:32:14.920Z,12.10
2017-08-21T21:34:43.863Z,12.10
2017-08-21T21:37:12.774Z,12.10
2017-08-21T21:39:41.715Z,12.00
2017-08-21T21:42:10.662Z,11.90
2017-08-21T21:44:39.627Z,11.90
2017-08-21T21:47:09.333Z,11.90
2017-08-21T21:49:39.016Z,11.90
2017-08-21T21:52:07.906Z,11.80
2017-08-21T21:54:36.847Z,11.80
2017-08-21T21:57:05.769Z,11.80
2017-08-21T21:59:34.686Z,11.80
2017-08-21T22:02:04.447Z,11.70
2017-08-21T22:04:33.384Z,11.70
2017-08-21T22:07:02.363Z,11.60
2017-08-21T22:09:31.411Z,11.60
2017-08-21T22:12:00.336Z,11.50
2017-08-21T22:14:29.256Z,11.50
2017-08-21T22:16:58.196Z,11.50
2017-08-21T22:19:27.127Z,11.50
2017-08-21T22:21:56.991Z,11.40
2017-08-21T22:24:25.895Z,11.40
2017-08-21T22:26:54.994Z,11.40
2017-08-21T22:29:23.903Z,11.30
2017-08-21T22:31:52.791Z,11.30
2017-08-21T22:34:21.679Z,11.30
2017-08-21T22:36:50.586Z,11.30
2017-08-21T22:39:19.464Z,11.20
2017-08-21T22:41:48.396Z,11.10
2017-08-21T22:44:18.108Z,11.10
2017-08-21T22:46:47.000Z,11.10
2017-08-21T22:49:16.655Z,11.10
2017-08-21T22:51:45.587Z,11.10
2017-08-21T22:54:14.479Z,11.10
2017-08-21T22:56:43.383Z,11.00
2017-08-21T22:59:13.089Z,11.10
2017-08-21T23:01:42.777Z,11.00
2017-08-21T23:04:11.704Z,11.00
2017-08-21T23:06:40.622Z,11.00
2017-08-21T23:09:09.595Z,11.00
2017-08-21T23:11:38.481Z,11.00
2017-08-21T23:14:07.390Z,11.00
2017-08-21T23:16:36.390Z,11.00
2017-08-21T23:19:05.491Z,10.90
2017-08-21T23:21:34.778Z,10.90
2017-08-21T23:24:03.824Z,10.90
2017-08-21T23:26:32.689Z,10.90
2017-08-21T23:29:01.552Z,10.90
2017-08-21T23:31:30.455Z,10.90
2017-08-21T23:33:59.357Z,10.90
2017-08-21T23:36:28.262Z,10.90
2017-08-21T23:38:57.129Z,10.90
2017-08-21T23:41:26.019Z,11.00
2017-08-21T23:43:54.903Z,11.00
2017-08-21T23:46:23.778Z,11.10
2017-08-21T23:48:52.681Z,11.00
2017-08-21T23:51:21.603Z,11.00
2017-08-21T23:53:50.436Z,11.00
2017-08-21T23:56:19.278Z,10.90
2017-08-21T23:58:48.547Z,10.90
